Time;durP1;ratioP1;P1;durP2;ratioP2;P2;SDS_P1;SDS_P2;PMS_P1;PMS_P2;Temp;Humidity;BMP_temperature;BMP_pressure;BME280_temperature;BME280_humidity;BME280_pressure;Samples;Min_cycle;Max_cycle;Signal;HPM_P1;HPM_P2
2021/01/31 00:00:45;;;;;;;6.47;5.75;;;5.00;82.20;;;;;;4999692;28;20112;-65
2021/01/31 00:03:15;;;;;;;7.60;6.10;;;4.90;82.20;;;;;;4999388;28;20045;-66
2021/01/31 00:05:43;;;;;;;6.45;5.57;;;4.80;82.10;;;;;;4999792;28;20078;-65
2021/01/31 00:08:10;;;;;;;6.25;5.65;;;4.80;82.20;;;;;;4998909;28;20030;-66
2021/01/31 00:10:36;;;;;;;6.53;5.72;;;4.70;82.30;;;;;;4995520;28;20038;-66
2021/01/31 00:13:04;;;;;;;5.47;4.97;;;4.60;82.30;;;;;;4998829;28;20046;-66
2021/01/31 00:15:33;;;;;;;5.82;5.10;;;4.60;82.50;;;;;;4999226;28;20042;-66
2021/01/31 00:17:59;;;;;;;6.70;6.00;;;4.60;82.80;;;;;;4998385;28;20041;-66
2021/01/31 00:20:31;;;;;;;5.88;5.13;;;4.60;83.00;;;;;;4997770;28;20148;-66
2021/01/31 00:22:57;;;;;;;5.95;5.30;;;4.60;82.60;;;;;;4999651;28;20030;-66
2021/01/31 00:25:24;;;;;;;6.93;6.03;;;4.60;82.70;;;;;;4999469;28;20387;-66
2021/01/31 00:27:50;;;;;;;6.60;5.90;;;4.60;83.80;;;;;;4998430;28;20035;-66
2021/01/31 00:30:16;;;;;;;8.60;6.57;;;4.60;83.00;;;;;;4998741;28;20042;-65
2021/01/31 00:32:42;;;;;;;6.25;5.57;;;4.50;82.70;;;;;;4999119;28;20052;-65
2021/01/31 00:35:09;;;;;;;7.57;6.22;;;4.50;82.80;;;;;;4999895;28;20406;-66
2021/01/31 00:37:34;;;;;;;6.85;6.15;;;4.50;82.90;;;;;;4998872;28;20386;-66
2021/01/31 00:40:00;;;;;;;6.85;6.15;;;4.50;82.90;;;;;;4998890;28;20045;-66
2021/01/31 00:42:26;;;;;;;7.20;6.43;;;4.50;82.90;;;;;;4998131;28;20031;-66
2021/01/31 00:44:52;;;;;;;7.03;6.25;;;4.50;83.00;;;;;;4999349;28;20137;-66
2021/01/31 00:47:20;;;;;;;8.35;6.88;;;4.50;83.00;;;;;;4998826;28;20034;-66
2021/01/31 00:49:47;;;;;;;7.95;6.78;;;4.50;83.00;;;;;;4998824;28;20453;-66
2021/01/31 00:52:13;;;;;;;9.55;8.35;;;4.50;82.80;;;;;;4998889;28;20034;-66
2021/01/31 00:54:39;;;;;;;10.63;7.63;;;4.50;82.60;;;;;;4999087;28;20125;-66
2021/01/31 00:57:06;;;;;;;9.75;7.75;;;4.50;82.40;;;;;;4998604;28;20069;-65
2021/01/31 00:59:31;;;;;;;9.15;7.60;;;4.40;82.50;;;;;;4998501;28;20089;-66
2021/01/31 01:01:57;;;;;;;9.93;8.15;;;4.40;82.50;;;;;;4998391;28;20030;-66
2021/01/31 01:04:23;;;;;;;9.05;7.80;;;4.30;82.60;;;;;;4999450;28;20129;-66
2021/01/31 01:06:49;;;;;;;9.43;7.55;;;4.40;82.80;;;;;;4998219;28;20120;-66
2021/01/31 01:09:15;;;;;;;8.65;7.32;;;4.40;82.80;;;;;;4997246;28;20056;-66
2021/01/31 01:11:42;;;;;;;8.80;7.45;;;4.40;83.00;;;;;;4993736;28;20062;-65
2021/01/31 01:14:08;;;;;;;10.93;8.35;;;4.40;83.00;;;;;;4996319;28;20568;-66
2021/01/31 01:16:33;;;;;;;10.40;8.52;;;4.30;82.90;;;;;;4997972;28;20049;-66
2021/01/31 01:18:59;;;;;;;9.68;8.02;;;4.40;82.80;;;;;;4997749;28;20034;-66
2021/01/31 01:21:26;;;;;;;10.85;8.55;;;4.30;82.70;;;;;;4999283;28;20034;-66
2021/01/31 01:23:51;;;;;;;11.85;9.30;;;4.40;82.80;;;;;;5000264;28;20039;-66
2021/01/31 01:26:17;;;;;;;10.50;7.60;;;4.30;82.60;;;;;;4998973;28;20065;-65
2021/01/31 01:28:43;;;;;;;11.05;8.88;;;4.30;82.40;;;;;;4997515;28;20088;-65
2021/01/31 01:31:08;;;;;;;12.32;9.65;;;4.30;82.50;;;;;;4997809;28;21194;-66
2021/01/31 01:33:34;;;;;;;13.73;10.57;;;4.30;82.60;;;;;;4999296;28;20137;-66
2021/01/31 01:35:59;;;;;;;11.43;9.07;;;4.20;82.50;;;;;;4998543;28;20906;-66
2021/01/31 01:38:25;;;;;;;10.55;8.18;;;4.20;82.40;;;;;;4997672;28;20046;-66
2021/01/31 01:40:55;;;;;;;13.85;9.57;;;4.10;82.60;;;;;;4997521;28;20034;-66
2021/01/31 01:43:21;;;;;;;17.17;10.25;;;4.10;82.90;;;;;;4996744;28;20081;-65
2021/01/31 01:46:17;;;;;;;12.88;9.73;;;4.10;82.80;;;;;;5001146;28;20037;-66
2021/01/31 01:48:45;;;;;;;15.93;10.02;;;4.00;82.80;;;;;;4996753;28;20033;-65
2021/01/31 01:51:11;;;;;;;14.57;9.90;;;4.00;82.80;;;;;;4995203;28;20033;-65
2021/01/31 01:53:38;;;;;;;12.30;10.00;;;4.00;82.80;;;;;;5000133;28;20112;-65
2021/01/31 01:56:32;;;;;;;22.58;11.43;;;4.00;82.80;;;;;;4998481;28;20910;-65
2021/01/31 01:58:59;;;;;;;12.07;9.52;;;3.90;82.90;;;;;;4996705;28;20042;-66
2021/01/31 02:01:24;;;;;;;12.15;9.85;;;3.90;82.80;;;;;;4996916;28;20034;-65
2021/01/31 02:03:54;;;;;;;14.32;10.52;;;3.80;83.00;;;;;;5000125;28;20389;-65
2021/01/31 02:06:23;;;;;;;13.52;10.20;;;3.80;83.10;;;;;;5003589;28;20038;-65
2021/01/31 02:08:49;;;;;;;13.82;9.70;;;3.80;83.20;;;;;;5002353;28;20061;-66
2021/01/31 02:11:17;;;;;;;12.07;9.25;;;3.80;83.30;;;;;;5006713;28;20058;-66
2021/01/31 02:13:46;;;;;;;14.68;9.68;;;3.80;83.40;;;;;;5003629;28;20648;-66
2021/01/31 02:16:40;;;;;;;12.93;10.10;;;3.70;83.70;;;;;;5004853;28;20048;-66
2021/01/31 02:19:30;;;;;;;12.98;9.63;;;3.80;84.00;;;;;;4998492;28;20113;-64
2021/01/31 02:21:59;;;;;;;11.00;8.48;;;3.80;83.60;;;;;;4983726;28;20046;-66
2021/01/31 02:25:03;;;;;;;10.20;7.78;;;3.80;83.50;;;;;;4983763;28;20031;-66
2021/01/31 02:27:29;;;;;;;10.88;7.85;;;3.80;83.90;;;;;;4957760;28;20042;-66
2021/01/31 02:30:13;;;;;;;9.35;7.50;;;3.70;83.50;;;;;;4985074;28;20498;-65
2021/01/31 02:33:02;;;;;;;9.00;7.27;;;3.70;83.50;;;;;;4985252;28;20237;-65
2021/01/31 02:35:29;;;;;;;8.35;6.85;;;3.70;83.30;;;;;;4986187;28;20290;-65
2021/01/31 02:37:59;;;;;;;8.38;6.65;;;3.70;83.30;;;;;;4984025;28;20042;-66
2021/01/31 02:40:55;;;;;;;7.72;6.07;;;3.70;83.40;;;;;;4983595;28;20517;-65
2021/01/31 02:43:40;;;;;;;7.35;6.30;;;3.70;83.50;;;;;;4983950;28;20050;-65
2021/01/31 02:46:27;;;;;;;7.57;6.10;;;3.70;83.50;;;;;;4999462;28;20405;-65
2021/01/31 02:49:12;;;;;;;6.22;5.63;;;3.70;83.60;;;;;;5000491;28;20030;-65
2021/01/31 02:51:50;;;;;;;7.00;6.30;;;3.70;83.30;;;;;;4985068;28;20434;-65
2021/01/31 02:54:34;;;;;;;7.43;6.45;;;3.70;83.40;;;;;;4999794;28;20116;-65
2021/01/31 02:57:09;;;;;;;6.85;6.15;;;3.70;83.40;;;;;;4989280;28;20045;-65
2021/01/31 02:59:56;;;;;;;7.80;6.20;;;3.80;83.30;;;;;;4994111;28;20063;-65
2021/01/31 03:02:31;;;;;;;7.25;5.88;;;3.70;83.20;;;;;;4983321;28;20043;-65
2021/01/31 03:05:01;;;;;;;7.38;6.13;;;3.80;83.30;;;;;;4985819;28;20031;-65
2021/01/31 03:07:50;;;;;;;9.20;7.25;;;3.80;83.30;;;;;;4985007;28;20038;-65
2021/01/31 03:10:36;;;;;;;9.13;7.03;;;3.80;83.50;;;;;;4974938;28;20118;-65
2021/01/31 03:13:10;;;;;;;9.02;7.65;;;3.80;83.30;;;;;;4983176;28;20457;-66
2021/01/31 03:15:41;;;;;;;8.38;7.25;;;3.80;83.20;;;;;;4982582;28;20577;-65
2021/01/31 03:18:15;;;;;;;10.00;7.68;;;3.80;83.90;;;;;;4964130;28;20137;-65
2021/01/31 03:20:49;;;;;;;9.45;7.82;;;3.80;82.90;;;;;;4979161;28;20489;-65
2021/01/31 03:23:21;;;;;;;10.87;6.83;;;3.70;82.70;;;;;;4982279;28;20121;-65
2021/01/31 03:25:55;;;;;;;9.07;7.38;;;3.70;82.80;;;;;;4981662;28;20018;-66
2021/01/31 03:28:20;;;;;;;9.07;7.55;;;3.70;83.10;;;;;;4963330;28;20082;-66
2021/01/31 03:30:47;;;;;;;9.52;7.60;;;3.60;82.90;;;;;;4980383;28;20034;-66
2021/01/31 03:33:29;;;;;;;7.82;6.50;;;3.70;83.10;;;;;;4982739;28;20061;-66
2021/01/31 03:35:56;;;;;;;9.25;7.13;;;3.60;83.30;;;;;;4994780;28;20030;-66
2021/01/31 03:38:29;;;;;;;7.82;6.28;;;3.60;83.20;;;;;;4983657;28;20042;-64
2021/01/31 03:41:03;;;;;;;10.38;7.13;;;3.60;83.00;;;;;;4979886;28;20033;-65
2021/01/31 03:43:29;;;;;;;10.00;7.03;;;3.50;83.00;;;;;;4981740;28;20492;-65
2021/01/31 03:46:09;;;;;;;9.15;6.57;;;3.50;83.00;;;;;;4982060;28;20035;-66
2021/01/31 03:48:45;;;;;;;7.97;6.40;;;3.50;83.20;;;;;;4980808;28;20045;-64
2021/01/31 03:51:12;;;;;;;8.32;6.75;;;3.50;83.20;;;;;;4980682;28;20034;-65
2021/01/31 03:53:38;;;;;;;8.23;6.95;;;3.50;83.30;;;;;;4980676;28;20407;-65
2021/01/31 03:56:05;;;;;;;8.15;6.35;;;3.50;83.30;;;;;;4981913;28;20034;-65
2021/01/31 03:58:31;;;;;;;14.38;7.28;;;3.50;83.30;;;;;;4980005;28;20070;-65
2021/01/31 04:01:01;;;;;;;10.10;7.25;;;3.50;83.40;;;;;;4981841;28;20038;-65
2021/01/31 04:03:46;;;;;;;9.70;7.15;;;3.50;83.30;;;;;;4962565;28;20031;-65
2021/01/31 04:06:17;;;;;;;10.27;7.05;;;3.50;83.50;;;;;;4995582;28;20405;-65
2021/01/31 04:08:45;;;;;;;8.48;6.95;;;3.50;83.20;;;;;;4980066;28;20033;-65
2021/01/31 04:11:10;;;;;;;9.38;7.43;;;3.50;83.20;;;;;;4979630;28;20049;-66
2021/01/31 04:13:36;;;;;;;9.52;7.45;;;3.50;83.30;;;;;;4980352;28;20039;-65
2021/01/31 04:16:06;;;;;;;10.07;7.82;;;3.50;83.30;;;;;;4980115;28;20038;-66
2021/01/31 04:18:32;;;;;;;9.68;7.20;;;3.50;83.40;;;;;;4979843;28;20507;-66
2021/01/31 04:20:58;;;;;;;14.13;7.85;;;3.60;83.30;;;;;;4981098;28;20037;-66
2021/01/31 04:23:23;;;;;;;10.85;8.25;;;3.50;83.30;;;;;;4987725;28;20030;-65
2021/01/31 04:25:50;;;;;;;10.65;8.07;;;3.50;83.30;;;;;;4987803;28;20043;-65
2021/01/31 04:28:19;;;;;;;12.02;8.43;;;3.60;83.40;;;;;;4980445;28;20034;-65
2021/01/31 04:30:47;;;;;;;12.48;8.85;;;3.60;83.40;;;;;;4979187;28;20038;-65
2021/01/31 04:33:14;;;;;;;11.73;8.70;;;3.60;83.20;;;;;;4980617;28;20041;-66
2021/01/31 04:35:40;;;;;;;12.70;8.90;;;3.60;83.10;;;;;;4981752;28;20115;-65
2021/01/31 04:38:07;;;;;;;12.13;8.75;;;3.60;83.00;;;;;;4993551;28;20122;-66
2021/01/31 04:40:33;;;;;;;14.93;8.20;;;3.60;83.00;;;;;;4999815;28;20042;-65
2021/01/31 04:43:01;;;;;;;12.77;8.95;;;3.60;83.00;;;;;;5000929;28;20081;-65
2021/01/31 04:45:27;;;;;;;12.80;9.13;;;3.60;83.20;;;;;;4999507;28;20037;-65
2021/01/31 04:47:59;;;;;;;13.00;8.93;;;3.60;83.20;;;;;;4999631;28;20069;-66
2021/01/31 04:50:33;;;;;;;13.35;9.50;;;3.60;83.30;;;;;;4998465;28;20026;-65
2021/01/31 04:53:17;;;;;;;12.40;8.98;;;3.60;83.20;;;;;;4998215;28;20034;-65
2021/01/31 04:56:04;;;;;;;17.23;10.38;;;3.60;83.00;;;;;;4999097;28;20617;-65
2021/01/31 04:58:51;;;;;;;15.27;9.95;;;3.60;83.10;;;;;;4998843;28;20512;-64
2021/01/31 05:01:30;;;;;;;13.02;8.80;;;3.60;83.20;;;;;;4997891;28;20204;-65
2021/01/31 05:04:00;;;;;;;15.93;9.68;;;3.60;83.10;;;;;;4999670;28;20114;-66
2021/01/31 05:06:49;;;;;;;17.08;9.70;;;3.60;84.00;;;;;;4999820;28;20027;-66
2021/01/31 05:09:20;;;;;;;17.67;9.75;;;3.60;83.20;;;;;;4998374;28;20497;-65
2021/01/31 05:12:09;;;;;;;14.32;9.75;;;3.60;83.20;;;;;;4998582;28;20048;-65
2021/01/31 05:14:54;;;;;;;18.33;9.18;;;3.70;83.30;;;;;;4999539;28;20042;-65
2021/01/31 05:17:19;;;;;;;20.15;9.98;;;3.60;83.30;;;;;;4997695;28;20037;-65
2021/01/31 05:19:45;;;;;;;13.77;9.43;;;3.60;83.10;;;;;;4998725;28;20053;-66
2021/01/31 05:22:19;;;;;;;14.90;9.85;;;3.70;83.30;;;;;;4999581;28;20033;-65
2021/01/31 05:24:47;;;;;;;14.05;9.68;;;3.70;83.30;;;;;;4998338;28;20035;-65
2021/01/31 05:27:17;;;;;;;16.42;9.73;;;3.70;83.20;;;;;;4998995;28;20053;-66
2021/01/31 05:29:43;;;;;;;14.10;10.00;;;3.70;83.20;;;;;;4997903;28;20796;-66
2021/01/31 05:32:09;;;;;;;13.07;9.32;;;3.70;83.20;;;;;;4999528;28;20065;-66
2021/01/31 05:34:38;;;;;;;17.95;10.07;;;3.80;83.30;;;;;;4999321;28;20566;-65
2021/01/31 05:37:06;;;;;;;13.57;9.52;;;3.80;83.20;;;;;;4999405;28;20038;-65
2021/01/31 05:39:37;;;;;;;16.55;9.85;;;3.80;83.10;;;;;;4997948;28;20081;-65
2021/01/31 05:42:16;;;;;;;18.83;9.52;;;3.80;83.00;;;;;;4998421;28;20030;-65
2021/01/31 05:44:42;;;;;;;14.00;10.05;;;3.80;82.90;;;;;;4999051;28;20572;-66
2021/01/31 05:47:24;;;;;;;17.15;9.85;;;3.80;82.80;;;;;;5000066;28;20608;-66
2021/01/31 05:49:53;;;;;;;16.30;10.15;;;3.80;83.00;;;;;;4998371;28;20038;-65
2021/01/31 05:52:18;;;;;;;15.90;10.27;;;3.80;83.00;;;;;;4998133;28;20702;-66
2021/01/31 05:54:45;;;;;;;22.88;14.27;;;3.80;82.90;;;;;;4996963;28;20067;-65
2021/01/31 05:57:22;;;;;;;14.30;9.65;;;3.80;82.80;;;;;;4997802;28;20075;-66
2021/01/31 05:59:48;;;;;;;20.77;9.57;;;3.80;83.00;;;;;;4998237;28;20046;-65
2021/01/31 06:02:22;;;;;;;16.83;10.13;;;3.80;83.00;;;;;;4996996;28;20076;-65
2021/01/31 06:04:48;;;;;;;25.92;10.43;;;3.80;83.00;;;;;;4981190;28;20042;-66
2021/01/31 06:07:19;;;;;;;15.73;9.82;;;3.80;82.80;;;;;;4998232;28;20514;-66
2021/01/31 06:09:52;;;;;;;17.90;10.13;;;3.80;82.80;;;;;;4998007;28;20105;-66
2021/01/31 06:12:20;;;;;;;16.63;9.82;;;3.80;82.70;;;;;;4999566;28;20133;-66
2021/01/31 06:15:10;;;;;;;16.02;10.13;;;3.80;82.70;;;;;;4999224;28;20520;-65
2021/01/31 06:17:36;;;;;;;14.73;9.60;;;3.80;83.00;;;;;;4998730;28;20051;-66
2021/01/31 06:20:24;;;;;;;19.98;9.82;;;3.80;82.80;;;;;;4997894;28;20437;-66
2021/01/31 06:22:50;;;;;;;14.23;9.43;;;3.80;83.00;;;;;;4980536;28;20036;-66
2021/01/31 06:25:32;;;;;;;19.52;9.88;;;3.80;82.90;;;;;;4997346;28;20434;-66
2021/01/31 06:28:15;;;;;;;15.48;10.60;;;3.80;82.90;;;;;;4997973;28;20030;-65
2021/01/31 06:30:49;;;;;;;17.92;10.32;;;3.80;83.20;;;;;;4998303;28;20049;-66
2021/01/31 06:33:15;;;;;;;18.60;9.73;;;3.80;83.10;;;;;;4998713;28;20620;-65
2021/01/31 06:35:41;;;;;;;14.10;9.45;;;3.80;83.00;;;;;;4997600;28;20038;-66
2021/01/31 06:38:30;;;;;;;15.43;9.27;;;3.90;83.00;;;;;;4996931;28;20122;-66
2021/01/31 06:41:27;;;;;;;22.33;10.48;;;3.80;82.90;;;;;;4993571;28;20089;-66
2021/01/31 06:44:22;;;;;;;14.68;9.43;;;3.90;83.00;;;;;;4978380;28;20077;-66
2021/01/31 06:47:10;;;;;;;15.82;9.50;;;3.80;83.00;;;;;;4993319;28;20027;-65
2021/01/31 06:50:00;;;;;;;14.70;9.63;;;3.80;82.90;;;;;;4977289;28;20526;-66
2021/01/31 06:53:07;;;;;;;17.23;9.95;;;3.80;83.90;;;;;;4981345;28;20042;-65
2021/01/31 06:55:48;;;;;;;20.08;13.18;;;3.90;83.20;;;;;;4960169;28;20030;-65
2021/01/31 06:58:34;;;;;;;15.40;10.15;;;3.90;83.20;;;;;;4985856;28;20115;-66
2021/01/31 07:01:37;;;;;;;19.15;12.75;;;3.90;83.20;;;;;;4958928;28;20050;-66
2021/01/31 07:04:02;;;;;;;14.95;9.68;;;3.90;83.20;;;;;;4992051;28;20053;-66
2021/01/31 07:06:50;;;;;;;19.20;11.68;;;4.00;83.00;;;;;;5000667;28;20705;-65
2021/01/31 07:10:01;;;;;;;18.17;10.52;;;4.00;84.10;;;;;;4981977;28;20030;-66
2021/01/31 07:12:36;;;;;;;15.45;10.02;;;4.00;83.00;;;;;;4990323;28;20135;-66
2021/01/31 07:15:08;;;;;;;19.35;12.82;;;4.00;82.80;;;;;;4998124;28;20042;-66
2021/01/31 07:18:04;;;;;;;18.30;10.90;;;4.10;82.80;;;;;;4991667;28;20506;-67
2021/01/31 07:20:34;;;;;;;31.70;10.82;;;4.10;83.20;;;;;;4995519;28;20052;-65
2021/01/31 07:23:22;;;;;;;16.15;9.98;;;4.10;82.80;;;;;;4997553;28;20053;-66
2021/01/31 07:26:02;;;;;;;19.98;11.05;;;4.10;83.00;;;;;;4996578;28;22461;-66
2021/01/31 07:28:36;;;;;;;16.90;10.93;;;4.10;82.80;;;;;;4998138;28;20030;-66
2021/01/31 07:31:10;;;;;;;21.88;9.25;;;4.10;82.80;;;;;;4999602;28;20618;-66
2021/01/31 07:33:43;;;;;;;26.15;11.10;;;4.20;82.90;;;;;;4999833;28;20506;-66
2021/01/31 07:36:36;;;;;;;22.27;11.18;;;4.10;82.80;;;;;;4999142;28;20459;-66
2021/01/31 07:39:11;;;;;;;22.27;12.30;;;4.20;83.00;;;;;;4991377;28;20034;-66
2021/01/31 07:41:50;;;;;;;25.60;12.80;;;4.20;82.90;;;;;;4981237;28;20506;-65
2021/01/31 07:44:23;;;;;;;18.90;10.57;;;4.20;82.80;;;;;;4981767;28;20042;-66
2021/01/31 07:46:49;;;;;;;18.27;10.88;;;4.10;82.80;;;;;;4976284;28;20038;-66
2021/01/31 07:49:14;;;;;;;18.20;11.15;;;4.10;82.80;;;;;;4979719;28;20465;-66
2021/01/31 07:51:40;;;;;;;16.90;10.68;;;4.10;83.00;;;;;;4978879;28;20054;-66
2021/01/31 07:54:34;;;;;;;17.58;10.57;;;4.10;83.00;;;;;;4978216;28;20100;-66
2021/01/31 07:57:34;;;;;;;21.20;10.95;;;4.20;83.30;;;;;;4994110;28;20520;-66
2021/01/31 08:00:09;;;;;;;16.92;10.48;;;4.20;83.30;;;;;;4969233;28;20630;-65
2021/01/31 08:02:36;;;;;;;;;;;4.20;83.10;;;;;;4978645;28;20038;-66
2021/01/31 08:05:02;;;;;;;19.50;11.10;;;4.30;83.50;;;;;;4977171;28;19920;-66
2021/01/31 08:08:19;;;;;;;24.80;12.10;;;4.20;82.70;;;;;;4976702;28;20041;-66
2021/01/31 08:10:50;;;;;;;23.33;10.98;;;4.20;82.80;;;;;;4945589;28;20603;-66
2021/01/31 08:13:34;;;;;;;22.10;11.20;;;4.30;82.70;;;;;;4998734;28;20042;-66
2021/01/31 08:16:01;;;;;;;23.50;12.40;;;4.20;82.80;;;;;;4995075;28;20524;-66
2021/01/31 08:18:27;;;;;;;37.75;12.93;;;4.20;82.70;;;;;;4998187;28;20034;-66
2021/01/31 08:20:53;;;;;;;31.77;12.20;;;4.10;82.90;;;;;;4996521;28;20394;-65
2021/01/31 08:23:25;;;;;;;28.10;11.63;;;4.10;82.80;;;;;;4998112;28;20455;-66
2021/01/31 08:26:07;;;;;;;24.90;11.55;;;4.20;83.00;;;;;;4997291;28;20072;-66
2021/01/31 08:28:36;;;;;;;34.35;12.25;;;4.00;83.00;;;;;;4994310;28;20481;-66
2021/01/31 08:31:05;;;;;;;18.65;11.07;;;4.00;83.00;;;;;;4996992;28;20071;-66
2021/01/31 08:33:35;;;;;;;21.02;11.40;;;4.00;83.10;;;;;;4997868;28;20464;-66
2021/01/31 08:36:03;;;;;;;21.63;11.38;;;4.00;83.40;;;;;;4997191;28;20040;-66
2021/01/31 08:38:30;;;;;;;24.58;11.60;;;3.90;83.50;;;;;;4998372;28;20421;-65
2021/01/31 08:41:02;;;;;;;16.45;11.43;;;4.00;83.60;;;;;;4996872;28;20037;-66
2021/01/31 08:43:33;;;;;;;26.02;11.77;;;4.00;83.70;;;;;;4998644;28;20461;-66
2021/01/31 08:46:08;;;;;;;21.60;12.23;;;4.00;83.80;;;;;;4998920;28;20042;-66
2021/01/31 08:48:34;;;;;;;31.45;12.25;;;4.00;83.90;;;;;;4992608;28;20042;-66
2021/01/31 08:51:05;;;;;;;20.38;11.07;;;4.00;83.70;;;;;;4997200;28;20406;-66
2021/01/31 08:53:33;;;;;;;21.52;13.10;;;4.10;83.80;;;;;;4994262;28;20038;-66
2021/01/31 08:56:22;;;;;;;26.85;12.60;;;4.10;83.70;;;;;;4998849;28;20638;-66
2021/01/31 08:58:49;;;;;;;54.95;12.93;;;4.10;83.90;;;;;;4996840;28;20113;-66
2021/01/31 09:01:15;;;;;;;37.10;13.27;;;4.10;83.00;;;;;;4996126;28;20064;-66
2021/01/31 09:03:43;;;;;;;19.92;11.98;;;4.10;83.30;;;;;;4997585;28;20538;-65
2021/01/31 09:06:09;;;;;;;18.23;11.80;;;4.10;83.30;;;;;;4995890;28;20042;-66
2021/01/31 09:08:37;;;;;;;17.98;12.02;;;4.10;83.50;;;;;;4995832;28;20107;-65
2021/01/31 09:11:05;;;;;;;22.75;11.32;;;4.10;83.80;;;;;;4996272;28;20518;-66
2021/01/31 09:13:34;;;;;;;63.15;13.70;;;4.00;83.90;;;;;;4995843;28;20038;-66
2021/01/31 09:16:27;;;;;;;45.63;12.60;;;4.00;83.90;;;;;;4998105;28;20040;-66
2021/01/31 09:19:19;;;;;;;59.90;13.45;;;4.10;83.90;;;;;;4996612;28;20042;-66
2021/01/31 09:21:48;;;;;;;18.20;11.75;;;4.00;83.80;;;;;;4997232;28;20069;-66
2021/01/31 09:24:18;;;;;;;22.73;11.75;;;4.00;83.70;;;;;;4997311;28;20408;-66
2021/01/31 09:26:50;;;;;;;45.70;12.45;;;4.10;84.10;;;;;;4994303;28;20108;-66
2021/01/31 09:29:18;;;;;;;40.33;12.50;;;4.00;84.10;;;;;;4996037;28;20417;-66
2021/01/31 09:31:52;;;;;;;20.50;12.40;;;4.00;84.10;;;;;;4995795;28;20103;-66
2021/01/31 09:34:22;;;;;;;25.45;12.82;;;4.00;84.20;;;;;;4996150;28;20038;-66
2021/01/31 09:37:03;;;;;;;20.63;12.18;;;4.10;84.40;;;;;;4992663;28;20107;-66
2021/01/31 09:39:29;;;;;;;19.20;10.60;;;4.10;84.70;;;;;;4995850;28;20045;-66
2021/01/31 09:41:55;;;;;;;18.95;11.20;;;4.20;84.60;;;;;;4997724;28;20393;-66
2021/01/31 09:44:21;;;;;;;22.48;11.88;;;4.20;84.40;;;;;;4997313;28;20117;-67
2021/01/31 09:46:46;;;;;;;25.08;16.45;;;4.20;84.40;;;;;;4996355;28;20490;-66
2021/01/31 09:49:18;;;;;;;20.45;12.98;;;4.30;84.50;;;;;;4997127;28;20079;-66
2021/01/31 09:51:44;;;;;;;25.88;14.10;;;4.30;84.50;;;;;;4997001;28;20034;-66
2021/01/31 09:54:14;;;;;;;15.55;10.38;;;4.30;84.40;;;;;;4994961;28;20100;-66
2021/01/31 09:56:43;;;;;;;11.82;8.35;;;4.40;84.60;;;;;;4997093;28;20046;-66
2021/01/31 09:59:29;;;;;;;17.70;9.18;;;4.50;84.60;;;;;;4996520;28;20128;-66
2021/01/31 10:02:02;;;;;;;;;;;4.50;84.60;;;;;;4996778;28;20413;-65
2021/01/31 10:04:28;;;;;;;14.43;7.72;;;4.50;84.70;;;;;;4978300;28;19949;-65
2021/01/31 10:07:19;;;;;;;15.20;8.32;;;4.50;84.00;;;;;;4997519;28;20125;-65
2021/01/31 10:09:50;;;;;;;13.13;8.20;;;4.60;84.00;;;;;;4983666;28;20042;-66
2021/01/31 10:12:31;;;;;;;13.77;8.77;;;4.60;83.90;;;;;;4994753;28;20052;-66
2021/01/31 10:15:00;;;;;;;14.20;8.50;;;4.60;84.00;;;;;;4997286;28;20073;-66
2021/01/31 10:17:28;;;;;;;12.38;7.63;;;4.70;83.90;;;;;;4987404;28;20049;-66
2021/01/31 10:20:34;;;;;;;12.25;7.75;;;4.70;83.80;;;;;;4977967;28;20379;-66
2021/01/31 10:23:06;;;;;;;14.32;8.10;;;4.70;83.90;;;;;;4991748;28;20061;-66
2021/01/31 10:25:33;;;;;;;11.32;7.90;;;4.80;83.90;;;;;;4979777;28;20502;-66
2021/01/31 10:27:59;;;;;;;15.00;9.10;;;4.80;83.70;;;;;;4980806;28;20394;-66
2021/01/31 10:30:48;;;;;;;12.38;7.85;;;4.80;83.60;;;;;;4981507;28;20706;-66
2021/01/31 10:33:40;;;;;;;13.13;8.32;;;4.80;83.50;;;;;;4983237;28;20126;-65
2021/01/31 10:36:23;;;;;;;13.32;8.32;;;4.90;83.50;;;;;;4981645;28;20050;-66
2021/01/31 10:38:50;;;;;;;10.10;7.63;;;4.90;83.50;;;;;;4997896;28;20050;-66
2021/01/31 10:41:16;;;;;;;9.38;6.47;;;4.90;83.50;;;;;;4992338;28;20043;-66
2021/01/31 10:43:41;;;;;;;11.32;8.00;;;4.90;83.50;;;;;;4988107;28;20066;-66
2021/01/31 10:46:07;;;;;;;12.57;8.63;;;4.90;83.60;;;;;;4977466;28;20088;-65
2021/01/31 10:48:33;;;;;;;13.70;8.13;;;5.00;83.70;;;;;;4973143;28;20046;-66
2021/01/31 10:50:59;;;;;;;10.10;7.18;;;5.00;83.70;;;;;;4973781;28;20034;-65
2021/01/31 10:53:25;;;;;;;11.20;7.80;;;5.10;83.80;;;;;;4972807;28;20597;-65
2021/01/31 10:55:50;;;;;;;11.80;8.20;;;5.10;83.70;;;;;;4975940;28;20038;-65
2021/01/31 10:58:16;;;;;;;12.60;8.73;;;5.10;83.60;;;;;;4976561;28;20401;-65
2021/01/31 11:00:42;;;;;;;13.07;9.10;;;5.10;83.50;;;;;;4973162;28;20082;-66
2021/01/31 11:03:08;;;;;;;10.93;8.07;;;5.20;83.40;;;;;;4984913;28;20073;-66
2021/01/31 11:05:33;;;;;;;11.57;7.43;;;5.20;83.30;;;;;;4988986;28;20054;-66
2021/01/31 11:07:59;;;;;;;13.45;8.82;;;5.20;83.20;;;;;;4980713;28;20038;-66
2021/01/31 11:10:25;;;;;;;12.73;8.52;;;5.20;83.00;;;;;;4976540;28;20061;-66
2021/01/31 11:12:51;;;;;;;10.95;7.60;;;5.20;83.00;;;;;;4981037;28;20461;-66
2021/01/31 11:15:19;;;;;;;11.82;7.85;;;5.20;83.00;;;;;;4988239;28;20035;-66
2021/01/31 11:17:45;;;;;;;13.02;8.65;;;5.30;83.10;;;;;;4987099;28;20045;-66
2021/01/31 11:20:11;;;;;;;13.10;8.75;;;5.30;83.00;;;;;;4980932;28;20035;-67
2021/01/31 11:22:37;;;;;;;13.55;8.93;;;5.30;82.90;;;;;;4978431;28;20061;-66
2021/01/31 11:25:04;;;;;;;12.57;8.75;;;5.30;82.80;;;;;;4980727;28;20050;-65
2021/01/31 11:27:30;;;;;;;12.15;8.60;;;5.30;82.80;;;;;;4979987;28;20039;-65
2021/01/31 11:29:56;;;;;;;13.55;9.27;;;5.30;82.70;;;;;;4980822;28;20041;-65
2021/01/31 11:32:21;;;;;;;16.73;10.52;;;5.40;82.80;;;;;;4980358;28;20035;-65
2021/01/31 11:34:47;;;;;;;16.23;10.23;;;5.40;82.80;;;;;;4981199;28;20043;-66
2021/01/31 11:37:13;;;;;;;15.27;9.95;;;5.40;82.90;;;;;;4978444;28;20050;-65
2021/01/31 11:39:38;;;;;;;13.65;9.30;;;5.40;83.00;;;;;;4980366;28;20061;-65
2021/01/31 11:42:04;;;;;;;15.65;10.48;;;5.40;83.00;;;;;;4980595;28;20034;-65
2021/01/31 11:44:30;;;;;;;14.77;10.30;;;5.40;83.00;;;;;;4979318;28;20038;-65
2021/01/31 11:46:56;;;;;;;13.75;9.52;;;5.40;83.00;;;;;;4980518;28;20117;-65
2021/01/31 11:49:21;;;;;;;18.08;10.93;;;5.50;83.00;;;;;;4980617;28;20128;-65
2021/01/31 11:51:47;;;;;;;14.90;9.73;;;5.50;83.00;;;;;;4977940;28;20038;-64
2021/01/31 11:54:12;;;;;;;14.40;9.95;;;5.50;83.00;;;;;;4980538;28;20509;-65
2021/01/31 11:56:38;;;;;;;13.65;9.50;;;5.50;82.80;;;;;;4980379;28;20039;-65
2021/01/31 11:59:04;;;;;;;16.13;9.85;;;5.60;82.80;;;;;;4979101;28;20046;-65
2021/01/31 12:01:29;;;;;;;14.55;10.07;;;5.60;82.80;;;;;;4979853;28;20510;-65
2021/01/31 12:03:55;;;;;;;15.32;10.48;;;5.60;82.80;;;;;;4978698;28;20035;-65
2021/01/31 12:06:21;;;;;;;14.88;10.23;;;5.60;82.80;;;;;;4980132;28;20039;-65
2021/01/31 12:08:47;;;;;;;15.23;9.95;;;5.60;82.80;;;;;;4978922;28;20042;-65
2021/01/31 12:11:12;;;;;;;15.50;10.93;;;5.70;83.00;;;;;;4984261;28;20468;-66
2021/01/31 12:13:38;;;;;;;17.77;11.23;;;5.70;82.80;;;;;;4997317;28;20034;-65
2021/01/31 12:16:04;;;;;;;16.17;11.65;;;5.70;82.60;;;;;;5000099;28;20113;-65
2021/01/31 12:18:30;;;;;;;18.58;11.90;;;5.70;82.20;;;;;;4997650;28;20568;-65
2021/01/31 12:20:55;;;;;;;17.35;11.27;;;5.70;81.80;;;;;;4997959;28;20065;-65
2021/01/31 12:23:21;;;;;;;17.77;11.30;;;5.70;81.90;;;;;;4999771;28;20489;-66
2021/01/31 12:25:47;;;;;;;15.82;10.95;;;5.70;82.80;;;;;;5000091;28;20064;-65
2021/01/31 12:28:15;;;;;;;15.38;11.07;;;5.70;82.10;;;;;;4998580;28;20045;-65
2021/01/31 12:30:41;;;;;;;17.27;10.73;;;5.70;81.70;;;;;;4998804;28;20147;-64
2021/01/31 12:33:06;;;;;;;16.95;11.35;;;5.60;81.80;;;;;;4999845;28;20121;-65
2021/01/31 12:35:32;;;;;;;17.25;11.88;;;5.60;82.00;;;;;;4996384;28;20026;-65
2021/01/31 12:37:58;;;;;;;15.98;10.77;;;5.60;82.00;;;;;;4998968;28;20516;-65
2021/01/31 12:40:27;;;;;;;14.65;10.23;;;5.60;81.90;;;;;;4993658;28;20038;-66
2021/01/31 12:42:53;;;;;;;16.55;10.95;;;5.50;82.00;;;;;;4995422;28;20123;-66
2021/01/31 12:45:21;;;;;;;14.70;10.38;;;5.60;82.20;;;;;;4998290;28;20113;-65
2021/01/31 12:47:47;;;;;;;15.73;10.95;;;5.60;82.10;;;;;;4998885;28;20130;-66
2021/01/31 12:50:14;;;;;;;16.17;10.70;;;5.60;82.10;;;;;;4998810;28;20041;-66
2021/01/31 12:52:39;;;;;;;18.00;11.55;;;5.60;82.00;;;;;;4996328;28;20038;-66
2021/01/31 12:55:07;;;;;;;19.83;12.65;;;5.60;81.90;;;;;;4999082;28;20035;-66
2021/01/31 12:57:33;;;;;;;21.25;13.23;;;5.60;81.90;;;;;;4997478;28;20042;-66
2021/01/31 12:59:59;;;;;;;21.85;13.85;;;5.60;82.00;;;;;;4997815;28;20037;-66
2021/01/31 13:02:26;;;;;;;22.63;13.48;;;5.60;82.00;;;;;;4998310;28;20039;-66
2021/01/31 13:04:51;;;;;;;17.08;10.93;;;5.60;82.10;;;;;;4997756;28;20126;-66
2021/01/31 13:07:17;;;;;;;14.45;10.05;;;5.60;82.10;;;;;;4998316;28;20101;-66
2021/01/31 13:09:43;;;;;;;13.98;9.73;;;5.60;82.10;;;;;;4997346;28;20050;-65